Accueil
METAR-TAF:

METAR-TAF

Aéroports :

Talkeetna, Alaska, États-Unis

latitude: 62-19-14N, longitude: 150-05-37W, altitude: 109 m

Observation

Le bulletin a été fait il y a 59 minutes, à 21:53 UTC
Vent calme
Température -10°C
Humidité 79%
Pression 1006 hPa
Visibilité: 16.1 km
Ciel couvert à une hauteur de 3200 ft

METAR: PATK 222153Z 00000KT 10SM OVC032 M10/M13 A2970 RMK AO2 SLP066 T11001128

Heure: 13:52 (22:52 UTC)

Prévision

Le bulletin a été fait il y a 55 minutes, à 21:57 UTC
Prévision valable du 22 à 22 UTC au 23 à 18 UTC
Vent 3 kt de direction variable
Visibilité: 10 km
Ciel couvert à une hauteur de 3500 ft
A partir de 23 à 0600 UTC
Vent 4 kt de nord
Visibilité: 10 km
Nuages épars à une hauteur de 3500 ft
Nuages fragmentés à une hauteur de 10000 ft

TAF: PATK 222157Z 2222/2318 VRB03KT P6SM OVC035 FM230600 01004KT P6SM SCT035 BKN100

Observations et prévisions météorologiques de plus de 4000 aéroports (messages METAR et TAF).

Les stations disponibles sont représentées par des disques jaunes et rouges sur la carte.

Passer la souris dessus pour voir le nom de la station.

Cliquer dessus pour voir les observations et prévisions météorologiques.

Pour changer de carte: cliquez sur les boutons verts avec une croix noire pour zoomer, sur le bouton vert avec un tiret pour effectuer un zoom arrière, ou sur les flèches vertes pour les cartes adjacentes.


METAR-TAF: